createdAt,value
2022-11-16T09:54:22.385Z,9.10
2022-11-16T09:56:27.302Z,9.10
2022-11-16T09:58:47.373Z,8.67
2022-11-16T10:01:03.362Z,8.80
2022-11-16T10:03:11.166Z,8.76
2022-11-16T10:05:15.842Z,8.75
2022-11-16T10:07:23.636Z,8.75
2022-11-16T10:09:26.963Z,9.01
2022-11-16T10:11:50.618Z,9.03
2022-11-16T10:14:04.802Z,8.90
2022-11-16T10:16:25.430Z,8.86
2022-11-16T10:18:36.467Z,8.95
2022-11-16T10:20:41.458Z,8.87
2022-11-16T10:23:22.851Z,8.92
2022-11-16T10:25:50.191Z,8.96
2022-11-16T10:28:23.291Z,8.97
2022-11-16T10:30:25.640Z,8.88
2022-11-16T10:32:32.376Z,8.79
2022-11-16T10:35:01.191Z,8.99
2022-11-16T10:37:08.446Z,8.84
2022-11-16T10:39:14.680Z,8.85
2022-11-16T10:41:31.324Z,8.88
2022-11-16T10:43:34.018Z,9.03
2022-11-16T10:45:55.919Z,8.99
2022-11-16T10:48:27.850Z,8.97
2022-11-16T10:50:33.530Z,9.03
2022-11-16T10:52:35.802Z,8.97
2022-11-16T10:54:42.969Z,8.87
2022-11-16T10:56:59.201Z,8.99
2022-11-16T10:59:02.714Z,8.97
2022-11-16T11:01:10.954Z,9.08
2022-11-16T11:03:13.982Z,8.97
2022-11-16T11:05:20.438Z,9.04
2022-11-16T11:07:31.024Z,9.10
2022-11-16T11:09:35.910Z,9.10
2022-11-16T11:11:57.273Z,9.12
2022-11-16T11:14:12.004Z,9.20
2022-11-16T11:16:18.175Z,9.14
2022-11-16T11:18:23.248Z,9.15
2022-11-16T11:20:25.882Z,9.29
2022-11-16T11:22:28.457Z,9.44
2022-11-16T11:24:44.500Z,9.39
2022-11-16T11:26:57.834Z,9.32
2022-11-16T11:29:02.453Z,9.36
2022-11-16T11:31:17.317Z,9.31
2022-11-16T11:33:23.644Z,9.27
2022-11-16T11:35:31.606Z,9.28
2022-11-16T11:37:37.797Z,9.30
2022-11-16T11:39:40.386Z,9.23
2022-11-16T11:41:59.799Z,9.13
2022-11-16T11:44:04.720Z,9.25
2022-11-16T11:46:15.647Z,9.23
2022-11-16T11:48:43.173Z,9.25
2022-11-16T11:50:51.529Z,9.21
2022-11-16T11:53:21.362Z,9.14
2022-11-16T11:55:23.654Z,9.14
2022-11-16T11:57:26.692Z,9.09
2022-11-16T11:59:30.431Z,9.05
2022-11-16T12:01:48.295Z,9.16
2022-11-16T12:04:20.066Z,9.01
2022-11-16T12:06:28.085Z,9.07
2022-11-16T12:09:01.197Z,8.94
2022-11-16T12:11:22.782Z,8.88
2022-11-16T12:13:34.313Z,9.00
2022-11-16T12:16:02.237Z,9.10
2022-11-16T12:18:23.335Z,9.14
2022-11-16T12:20:47.414Z,9.21
2022-11-16T12:23:24.399Z,9.14
2022-11-16T12:25:36.118Z,9.05
2022-11-16T12:27:43.533Z,8.95
2022-11-16T12:29:55.737Z,8.87
2022-11-16T12:32:43.202Z,8.89
2022-11-16T12:34:57.403Z,8.77
2022-11-16T12:37:15.432Z,8.69
2022-11-16T12:39:24.234Z,8.78
2022-11-16T12:41:26.364Z,8.83
2022-11-16T12:43:35.111Z,8.94
2022-11-16T12:46:15.070Z,8.97
2022-11-16T12:48:34.376Z,9.00
2022-11-16T12:50:43.086Z,8.95
2022-11-16T12:53:03.959Z,8.98
2022-11-16T12:55:36.752Z,9.02
2022-11-16T12:57:51.346Z,9.02
2022-11-16T12:59:53.544Z,8.92
2022-11-16T13:02:14.116Z,8.92
2022-11-16T13:04:24.075Z,8.95
2022-11-16T13:06:47.218Z,8.98
2022-11-16T13:08:59.073Z,8.96
2022-11-16T13:11:30.494Z,8.98
2022-11-16T13:13:36.775Z,9.06
2022-11-16T13:15:53.125Z,8.99
2022-11-16T13:18:00.193Z,8.84
2022-11-16T13:20:17.657Z,8.88
2022-11-16T13:22:24.262Z,8.96
2022-11-16T13:24:38.849Z,9.07
2022-11-16T13:27:10.282Z,8.86
2022-11-16T13:29:30.879Z,8.89
2022-11-16T13:31:33.349Z,9.00
2022-11-16T13:33:51.281Z,8.98
2022-11-16T13:35:53.861Z,8.94
2022-11-16T13:37:56.441Z,8.76
2022-11-16T13:39:58.774Z,8.83
2022-11-16T13:42:14.000Z,8.86
2022-11-16T13:44:16.449Z,8.74
2022-11-16T13:46:53.642Z,8.69
2022-11-16T13:48:45.715Z,8.79
2022-11-16T13:50:57.925Z,8.95
2022-11-16T13:55:40.804Z,9.05
2022-11-16T13:57:52.598Z,9.01
2022-11-16T14:00:27.206Z,9.03
2022-11-16T14:02:42.781Z,8.98
2022-11-16T14:05:00.336Z,8.81
2022-11-16T14:07:02.724Z,8.94
2022-11-16T14:09:43.857Z,8.93
2022-11-16T14:11:46.118Z,9.03
2022-11-16T14:13:48.972Z,9.07
2022-11-16T14:16:17.194Z,9.00
2022-11-16T14:18:37.032Z,9.03
2022-11-16T14:21:14.567Z,8.92
2022-11-16T14:23:44.540Z,8.81
2022-11-16T14:26:02.424Z,8.88
2022-11-16T14:28:19.583Z,8.94
2022-11-16T14:30:30.586Z,9.03
2022-11-16T14:32:44.379Z,8.73
2022-11-16T14:34:49.078Z,8.43
2022-11-16T14:36:52.909Z,8.23
2022-11-16T14:38:55.190Z,8.29
2022-11-16T14:41:00.106Z,8.43
2022-11-16T14:43:23.034Z,8.36
2022-11-16T14:45:31.134Z,8.29
2022-11-16T14:47:36.555Z,8.32
2022-11-16T14:49:43.226Z,8.29
2022-11-16T14:51:50.086Z,8.40
2022-11-16T14:53:59.881Z,8.46
2022-11-16T14:56:08.471Z,8.44
2022-11-16T14:58:22.047Z,8.16
2022-11-16T15:00:30.319Z,8.14
2022-11-16T15:02:34.383Z,7.98
2022-11-16T15:04:38.821Z,8.08
2022-11-16T15:06:45.693Z,8.13
2022-11-16T15:08:54.222Z,8.10
2022-11-16T15:10:57.053Z,8.24
2022-11-16T15:12:59.440Z,8.26
2022-11-16T15:15:07.297Z,8.37
2022-11-16T15:17:16.367Z,8.33
2022-11-16T15:19:19.560Z,8.47
2022-11-16T15:21:23.300Z,8.47
2022-11-16T15:23:30.441Z,8.68
2022-11-16T15:25:40.605Z,8.46
2022-11-16T15:27:43.367Z,8.38
2022-11-16T15:29:45.850Z,8.48
2022-11-16T15:31:48.846Z,8.49
2022-11-16T15:33:52.041Z,8.52
2022-11-16T15:35:55.684Z,8.68
2022-11-16T15:38:20.015Z,8.74
2022-11-16T15:40:22.674Z,8.62
2022-11-16T15:42:27.049Z,8.49
2022-11-16T15:44:31.562Z,8.42
2022-11-16T15:46:35.622Z,8.42
2022-11-16T15:48:39.070Z,8.37
2022-11-16T15:50:54.106Z,8.21
2022-11-16T15:52:59.822Z,8.38
2022-11-16T15:55:05.124Z,8.34
2022-11-16T15:57:12.019Z,8.41
2022-11-16T15:59:29.991Z,8.38
2022-11-16T16:01:40.589Z,8.52
2022-11-16T16:03:59.398Z,8.44
2022-11-16T16:06:02.530Z,8.55
2022-11-16T16:08:05.790Z,8.64
2022-11-16T16:10:20.727Z,8.47
2022-11-16T16:12:28.214Z,8.30
2022-11-16T16:14:31.106Z,8.41
2022-11-16T16:16:36.992Z,8.56
2022-11-16T16:18:43.988Z,8.64
2022-11-16T16:20:48.552Z,8.69
2022-11-16T16:22:52.168Z,8.74
2022-11-16T16:24:54.713Z,8.57
2022-11-16T16:26:57.235Z,8.40
2022-11-16T16:28:59.776Z,8.48
2022-11-16T16:31:02.063Z,8.52
2022-11-16T16:33:04.579Z,8.62
2022-11-16T16:35:15.079Z,8.66
2022-11-16T16:37:17.491Z,8.67
2022-11-16T16:39:20.377Z,8.62
2022-11-16T16:41:24.783Z,8.47
2022-11-16T16:43:27.401Z,8.32
2022-11-16T16:45:43.575Z,8.22
2022-11-16T16:47:46.396Z,8.28
2022-11-16T16:49:49.463Z,8.40
2022-11-16T16:51:51.869Z,8.43
2022-11-16T16:53:54.541Z,8.57
2022-11-16T16:55:56.803Z,8.51
2022-11-16T16:57:59.498Z,8.49
2022-11-16T17:00:02.525Z,8.55
2022-11-16T17:02:05.017Z,8.44
2022-11-16T17:04:08.124Z,8.21
2022-11-16T17:06:11.065Z,8.10
2022-11-16T17:08:16.189Z,8.08
2022-11-16T17:10:19.014Z,8.24
2022-11-16T17:12:21.688Z,8.10
2022-11-16T17:14:24.655Z,8.09
2022-11-16T17:16:27.314Z,8.01
2022-11-16T17:18:30.011Z,8.00
2022-11-16T17:20:33.329Z,7.98
2022-11-16T17:22:36.026Z,7.98
2022-11-16T17:24:38.907Z,7.96
2022-11-16T17:26:41.637Z,8.08
2022-11-16T17:28:44.115Z,8.03
2022-11-16T17:30:46.884Z,7.85
2022-11-16T17:32:49.717Z,7.91
2022-11-16T17:34:52.212Z,8.05
2022-11-16T17:36:56.193Z,7.98
2022-11-16T17:38:58.809Z,7.84
2022-11-16T17:41:10.445Z,7.74
2022-11-16T17:43:13.367Z,7.98
2022-11-16T17:45:16.334Z,7.94
2022-11-16T17:47:18.919Z,7.85
2022-11-16T17:49:21.821Z,7.88
2022-11-16T17:51:25.548Z,7.79
2022-11-16T17:53:32.661Z,7.89
2022-11-16T17:55:37.520Z,7.95
2022-11-16T17:57:39.844Z,8.02
2022-11-16T17:59:44.823Z,8.04
2022-11-16T18:01:48.831Z,7.91
2022-11-16T18:03:51.750Z,7.81
2022-11-16T18:06:13.851Z,7.83
2022-11-16T18:08:17.043Z,7.82
2022-11-16T18:10:20.307Z,7.88
2022-11-16T18:12:25.892Z,7.91
2022-11-16T18:14:28.569Z,7.86
2022-11-16T18:16:33.246Z,7.94
2022-11-16T18:18:36.622Z,7.91
2022-11-16T18:20:39.517Z,7.94
2022-11-16T18:22:42.336Z,7.85
2022-11-16T18:24:44.939Z,7.93
2022-11-16T18:26:47.512Z,8.03
2022-11-16T18:28:52.318Z,8.02
2022-11-16T18:31:02.929Z,8.13
2022-11-16T18:33:05.736Z,8.17
2022-11-16T18:35:10.389Z,8.16
2022-11-16T18:37:13.038Z,8.12
2022-11-16T18:39:15.915Z,8.13
2022-11-16T18:41:21.688Z,8.26
2022-11-16T18:43:24.033Z,8.39
2022-11-16T18:45:27.422Z,8.33
2022-11-16T18:47:30.310Z,8.36
2022-11-16T18:49:33.021Z,8.26
2022-11-16T18:51:35.701Z,8.00
2022-11-16T18:53:38.978Z,8.02
2022-11-16T18:55:41.819Z,8.13
2022-11-16T18:57:44.858Z,8.04
2022-11-16T18:59:47.444Z,8.01
2022-11-16T19:01:50.112Z,8.01
2022-11-16T19:03:54.950Z,7.91
2022-11-16T19:06:03.924Z,7.88
2022-11-16T19:08:14.303Z,7.77
2022-11-16T19:10:18.089Z,7.78
2022-11-16T19:12:20.658Z,7.70
2022-11-16T19:14:23.231Z,7.77
2022-11-16T19:16:26.025Z,7.88
2022-11-16T19:18:29.087Z,7.98
2022-11-16T19:20:31.894Z,7.91
2022-11-16T19:22:35.805Z,7.78
2022-11-16T19:24:38.937Z,7.83
2022-11-16T19:26:41.681Z,7.91
2022-11-16T19:28:46.617Z,7.86
2022-11-16T19:30:49.079Z,7.92
2022-11-16T19:32:56.381Z,7.92
2022-11-16T19:34:59.116Z,8.00
2022-11-16T19:37:02.054Z,8.05
2022-11-16T19:39:05.759Z,8.07
2022-11-16T19:41:11.189Z,8.04
2022-11-16T19:43:14.219Z,8.18
2022-11-16T19:45:17.005Z,8.28
2022-11-16T19:47:19.440Z,8.35
2022-11-16T19:49:22.330Z,8.21
2022-11-16T19:51:28.000Z,7.97
2022-11-16T19:53:30.318Z,7.89
2022-11-16T19:55:34.190Z,7.79
2022-11-16T19:57:37.104Z,7.90
2022-11-16T19:59:39.910Z,7.81
2022-11-16T20:01:42.607Z,7.73
2022-11-16T20:03:46.775Z,7.74
2022-11-16T20:05:49.588Z,7.69
2022-11-16T20:07:52.454Z,7.70
2022-11-16T20:09:55.439Z,7.85
2022-11-16T20:11:59.857Z,7.81
2022-11-16T20:14:05.078Z,7.81
2022-11-16T20:16:11.566Z,7.86
2022-11-16T20:18:14.259Z,7.92
2022-11-16T20:20:17.102Z,7.83
2022-11-16T20:22:20.001Z,7.79
2022-11-16T20:24:23.122Z,7.89
2022-11-16T20:26:28.380Z,7.95
2022-11-16T20:28:37.451Z,8.07
2022-11-16T20:30:49.238Z,8.16
2022-11-16T20:32:52.063Z,8.15
2022-11-16T20:34:54.898Z,8.15
2022-11-16T20:36:57.491Z,8.23
2022-11-16T20:39:01.196Z,8.02
2022-11-16T20:41:14.772Z,8.02
2022-11-16T20:43:17.466Z,8.19
2022-11-16T20:45:19.769Z,7.98
2022-11-16T20:47:22.574Z,8.07
2022-11-16T20:49:25.049Z,8.12
2022-11-16T20:51:29.070Z,8.15
2022-11-16T20:53:32.538Z,8.33
2022-11-16T20:55:35.315Z,8.17
2022-11-16T20:57:37.961Z,8.20
2022-11-16T20:59:42.114Z,8.28
2022-11-16T21:01:47.856Z,8.33
2022-11-16T21:03:50.200Z,8.40
2022-11-16T21:05:53.000Z,8.46
2022-11-16T21:07:55.262Z,8.47
2022-11-16T21:10:16.139Z,8.60
2022-11-16T21:12:42.543Z,8.67
2022-11-16T21:14:44.971Z,8.63
2022-11-16T21:16:47.277Z,8.48
2022-11-16T21:18:49.821Z,8.52
2022-11-16T21:21:02.384Z,8.51
2022-11-16T21:23:05.004Z,8.56
2022-11-16T21:25:08.025Z,8.64
2022-11-16T21:27:10.208Z,8.62
2022-11-16T21:29:12.371Z,8.65
2022-11-16T21:31:17.881Z,8.67
2022-11-16T21:33:20.128Z,8.64
2022-11-16T21:35:23.577Z,8.68
2022-11-16T21:37:26.099Z,8.56
2022-11-16T21:39:28.349Z,8.49
2022-11-16T21:41:30.976Z,8.48
2022-11-16T21:43:36.436Z,8.54
2022-11-16T21:45:38.850Z,8.55
2022-11-16T21:47:41.213Z,8.47
2022-11-16T21:50:09.789Z,8.51
2022-11-16T21:52:06.345Z,8.49
2022-11-16T21:54:08.592Z,8.39
2022-11-16T21:56:19.248Z,8.30
2022-11-16T21:58:21.510Z,8.28
2022-11-16T22:00:24.119Z,8.24
2022-11-16T22:02:26.866Z,8.34
2022-11-16T22:04:47.734Z,8.45
2022-11-16T22:07:16.075Z,8.45
2022-11-16T22:09:18.595Z,8.50
2022-11-16T22:11:22.264Z,8.62
2022-11-16T22:13:24.672Z,8.68
2022-11-16T22:15:27.714Z,8.61
2022-11-16T22:17:29.905Z,8.60
2022-11-16T22:19:32.081Z,8.64
2022-11-16T22:21:34.830Z,8.60
2022-11-16T22:23:38.246Z,8.49
2022-11-16T22:25:40.922Z,8.43
2022-11-16T22:28:13.758Z,8.41
2022-11-16T22:30:09.723Z,8.58
2022-11-16T22:32:12.011Z,8.55
2022-11-16T22:34:14.513Z,8.61
2022-11-16T22:36:16.731Z,8.67
2022-11-16T22:38:18.902Z,8.69
2022-11-16T22:40:21.390Z,8.79
2022-11-16T22:42:23.563Z,8.73
2022-11-16T22:44:25.837Z,8.73
2022-11-16T22:46:28.324Z,8.68
2022-11-16T22:48:34.910Z,8.62
2022-11-16T22:50:37.096Z,8.61
2022-11-16T22:52:39.638Z,8.55
2022-11-16T22:54:41.908Z,8.67
2022-11-16T22:56:44.245Z,8.70
2022-11-16T22:58:46.759Z,8.60
2022-11-16T23:00:48.936Z,8.67
2022-11-16T23:02:51.914Z,8.66
2022-11-16T23:04:54.364Z,8.62
2022-11-16T23:06:56.775Z,8.65
2022-11-16T23:08:59.305Z,8.63
2022-11-16T23:11:23.527Z,8.56
2022-11-16T23:13:44.273Z,8.58
2022-11-16T23:15:49.325Z,8.54
2022-11-16T23:17:51.852Z,8.51
2022-11-16T23:20:17.448Z,8.50
2022-11-16T23:22:40.766Z,8.48
2022-11-16T23:25:02.770Z,8.52
2022-11-16T23:27:23.731Z,8.64
